sensor_id;sensor_type;location;lat;lon;timestamp;pressure;altitude;pressure_sealevel;temperature;humidity
50774;BME280;36745;48.544;8.918;2023-01-29T00:01:06;98369.06;;;0.27;88.77
50774;BME280;36745;48.544;8.918;2023-01-29T00:04:26;98368.09;;;0.20;88.03
50774;BME280;36745;48.544;8.918;2023-01-29T00:07:46;98356.25;;;0.12;87.91
50774;BME280;36745;48.544;8.918;2023-01-29T00:11:07;98359.47;;;0.02;88.31
50774;BME280;36745;48.544;8.918;2023-01-29T00:14:26;98351.63;;;0.13;87.60
50774;BME280;36745;48.544;8.918;2023-01-29T00:17:46;98353.50;;;-0.04;87.83
50774;BME280;36745;48.544;8.918;2023-01-29T00:21:10;98365.78;;;0.06;88.05
50774;BME280;36745;48.544;8.918;2023-01-29T00:24:30;98354.47;;;0.16;88.42
50774;BME280;36745;48.544;8.918;2023-01-29T00:27:50;98358.03;;;0.20;87.84
50774;BME280;36745;48.544;8.918;2023-01-29T00:31:18;98347.44;;;0.15;87.75
50774;BME280;36745;48.544;8.918;2023-01-29T00:34:38;98357.06;;;0.13;87.83
50774;BME280;36745;48.544;8.918;2023-01-29T00:37:58;98348.78;;;0.21;87.91
50774;BME280;36745;48.544;8.918;2023-01-29T00:41:18;98343.63;;;0.32;87.76
50774;BME280;36745;48.544;8.918;2023-01-29T00:44:56;98357.00;;;0.25;87.99
50774;BME280;36745;48.544;8.918;2023-01-29T00:48:16;98346.22;;;0.13;87.71
50774;BME280;36745;48.544;8.918;2023-01-29T00:51:37;98345.88;;;0.14;88.04
50774;BME280;36745;48.544;8.918;2023-01-29T00:54:58;98331.59;;;0.17;88.20
50774;BME280;36745;48.544;8.918;2023-01-29T00:58:18;98340.38;;;0.26;88.33
50774;BME280;36745;48.544;8.918;2023-01-29T01:01:40;98338.81;;;0.25;88.15
50774;BME280;36745;48.544;8.918;2023-01-29T01:05:19;98345.41;;;0.12;86.71
50774;BME280;36745;48.544;8.918;2023-01-29T01:08:39;98346.91;;;0.10;87.02
50774;BME280;36745;48.544;8.918;2023-01-29T01:12:17;98353.13;;;0.10;87.23
50774;BME280;36745;48.544;8.918;2023-01-29T01:15:39;98349.09;;;0.04;86.79
50774;BME280;36745;48.544;8.918;2023-01-29T01:18:59;98349.50;;;0.06;87.38
50774;BME280;36745;48.544;8.918;2023-01-29T01:22:19;98342.44;;;0.17;87.53
50774;BME280;36745;48.544;8.918;2023-01-29T01:25:39;98341.78;;;0.20;87.22
50774;BME280;36745;48.544;8.918;2023-01-29T01:28:59;98357.94;;;0.17;87.79
50774;BME280;36745;48.544;8.918;2023-01-29T01:32:19;98349.19;;;0.23;87.58
50774;BME280;36745;48.544;8.918;2023-01-29T01:35:40;98348.16;;;0.28;87.54
50774;BME280;36745;48.544;8.918;2023-01-29T01:38:59;98345.31;;;0.36;87.44
50774;BME280;36745;48.544;8.918;2023-01-29T01:42:19;98344.16;;;0.37;87.55
50774;BME280;36745;48.544;8.918;2023-01-29T01:45:39;98344.59;;;0.39;87.21
50774;BME280;36745;48.544;8.918;2023-01-29T01:49:03;98343.00;;;0.38;87.28
50774;BME280;36745;48.544;8.918;2023-01-29T01:52:24;98337.84;;;0.33;86.59
50774;BME280;36745;48.544;8.918;2023-01-29T01:55:54;98339.88;;;0.36;87.15
50774;BME280;36745;48.544;8.918;2023-01-29T01:59:17;98339.88;;;0.36;87.01
50774;BME280;36745;48.544;8.918;2023-01-29T02:02:40;98329.91;;;0.40;86.96
50774;BME280;36745;48.544;8.918;2023-01-29T02:06:19;98336.97;;;0.45;87.18
50774;BME280;36745;48.544;8.918;2023-01-29T02:13:26;98334.63;;;0.43;86.95
50774;BME280;36745;48.544;8.918;2023-01-29T02:16:45;98344.06;;;0.50;87.06
50774;BME280;36745;48.544;8.918;2023-01-29T02:20:16;98333.75;;;0.39;86.27
50774;BME280;36745;48.544;8.918;2023-01-29T02:27:12;98341.19;;;0.43;86.95
50774;BME280;36745;48.544;8.918;2023-01-29T02:35:10;98350.72;;;0.36;86.76
50774;BME280;36745;48.544;8.918;2023-01-29T02:42:47;98354.56;;;0.35;86.22
50774;BME280;36745;48.544;8.918;2023-01-29T02:53:32;98347.56;;;0.34;86.11
50774;BME280;36745;48.544;8.918;2023-01-29T02:57:13;98351.38;;;0.18;85.82
50774;BME280;36745;48.544;8.918;2023-01-29T03:00:37;98352.63;;;0.20;85.86
50774;BME280;36745;48.544;8.918;2023-01-29T03:04:11;98345.63;;;0.19;85.77
50774;BME280;36745;48.544;8.918;2023-01-29T03:07:37;98356.13;;;0.21;85.98
50774;BME280;36745;48.544;8.918;2023-01-29T03:11:05;98351.25;;;0.26;85.91
50774;BME280;36745;48.544;8.918;2023-01-29T03:14:34;98343.47;;;0.40;85.28
50774;BME280;36745;48.544;8.918;2023-01-29T03:18:17;98344.22;;;0.25;84.92
50774;BME280;36745;48.544;8.918;2023-01-29T03:21:42;98334.06;;;0.22;85.21
50774;BME280;36745;48.544;8.918;2023-01-29T03:25:11;98329.63;;;0.30;85.40
50774;BME280;36745;48.544;8.918;2023-01-29T03:28:51;98336.28;;;0.32;85.46
50774;BME280;36745;48.544;8.918;2023-01-29T03:32:29;98338.28;;;0.35;85.37
50774;BME280;36745;48.544;8.918;2023-01-29T03:35:55;98339.34;;;0.47;84.15
50774;BME280;36745;48.544;8.918;2023-01-29T03:39:17;98345.66;;;0.51;84.40
50774;BME280;36745;48.544;8.918;2023-01-29T03:46:37;98348.28;;;0.31;84.03
50774;BME280;36745;48.544;8.918;2023-01-29T03:50:00;98338.88;;;0.29;84.66
50774;BME280;36745;48.544;8.918;2023-01-29T03:53:45;98337.59;;;0.38;83.84
50774;BME280;36745;48.544;8.918;2023-01-29T03:57:37;98342.94;;;0.35;83.77
50774;BME280;36745;48.544;8.918;2023-01-29T04:04:29;98341.19;;;0.27;83.67
50774;BME280;36745;48.544;8.918;2023-01-29T04:07:55;98338.47;;;0.27;84.09
50774;BME280;36745;48.544;8.918;2023-01-29T04:11:18;98343.91;;;0.27;83.97
50774;BME280;36745;48.544;8.918;2023-01-29T04:14:39;98339.88;;;0.36;84.14
50774;BME280;36745;48.544;8.918;2023-01-29T04:17:59;98348.28;;;0.31;83.84
50774;BME280;36745;48.544;8.918;2023-01-29T04:21:19;98342.13;;;0.34;83.81
50774;BME280;36745;48.544;8.918;2023-01-29T04:24:39;98342.94;;;0.35;84.11
50774;BME280;36745;48.544;8.918;2023-01-29T04:31:30;98349.94;;;0.36;81.90
50774;BME280;36745;48.544;8.918;2023-01-29T04:35:23;98347.56;;;0.34;81.83
50774;BME280;36745;48.544;8.918;2023-01-29T04:38:55;98344.03;;;0.18;82.60
50774;BME280;36745;48.544;8.918;2023-01-29T04:42:34;98341.94;;;0.27;82.64
50774;BME280;36745;48.544;8.918;2023-01-29T04:46:18;98347.19;;;0.20;82.64
50774;BME280;36745;48.544;8.918;2023-01-29T04:53:21;98340.53;;;0.18;83.28
50774;BME280;36745;48.544;8.918;2023-01-29T04:57:08;98344.22;;;0.25;82.87
50774;BME280;36745;48.544;8.918;2023-01-29T05:00:52;98332.00;;;0.31;82.65
50774;BME280;36745;48.544;8.918;2023-01-29T05:04:15;98338.09;;;0.28;82.60
50774;BME280;36745;48.544;8.918;2023-01-29T05:07:38;98341.78;;;0.20;81.74
50774;BME280;36745;48.544;8.918;2023-01-29T05:10:59;98339.06;;;0.20;81.39
50774;BME280;36745;48.544;8.918;2023-01-29T05:14:19;98350.25;;;0.19;81.55
50774;BME280;36745;48.544;8.918;2023-01-29T05:17:41;98348.66;;;0.18;79.89
50774;BME280;36745;48.544;8.918;2023-01-29T05:21:04;98351.63;;;0.13;80.67
50774;BME280;36745;48.544;8.918;2023-01-29T05:24:26;98346.13;;;0.09;81.29
50774;BME280;36745;48.544;8.918;2023-01-29T05:27:48;98345.25;;;0.05;80.91
50774;BME280;36745;48.544;8.918;2023-01-29T05:31:32;98347.75;;;0.26;81.24
50774;BME280;36745;48.544;8.918;2023-01-29T05:34:52;98338.81;;;0.25;80.82
50774;BME280;36745;48.544;8.918;2023-01-29T05:38:12;98343.91;;;0.27;80.64
50774;BME280;36745;48.544;8.918;2023-01-29T05:41:32;98339.31;;;0.15;79.97
50774;BME280;36745;48.544;8.918;2023-01-29T05:44:51;98342.38;;;0.14;80.20
50774;BME280;36745;48.544;8.918;2023-01-29T05:48:11;98346.84;;;0.22;80.74
50774;BME280;36745;48.544;8.918;2023-01-29T05:51:31;98343.09;;;0.26;80.79
50774;BME280;36745;48.544;8.918;2023-01-29T05:54:51;98339.69;;;0.29;80.88
50774;BME280;36745;48.544;8.918;2023-01-29T05:58:11;98333.22;;;0.34;81.20
50774;BME280;36745;48.544;8.918;2023-01-29T06:01:31;98348.28;;;0.31;80.99
50774;BME280;36745;48.544;8.918;2023-01-29T06:04:51;98321.66;;;0.21;80.53
50774;BME280;36745;48.544;8.918;2023-01-29T06:08:11;98313.53;;;0.21;80.91
50774;BME280;36745;48.544;8.918;2023-01-29T06:11:31;98306.06;;;0.18;80.89
50774;BME280;36745;48.544;8.918;2023-01-29T06:14:51;98310.91;;;0.25;81.13
50774;BME280;36745;48.544;8.918;2023-01-29T06:18:11;98311.97;;;0.36;81.09
50774;BME280;36745;48.544;8.918;2023-01-29T06:21:31;98314.41;;;0.41;81.20
50774;BME280;36745;48.544;8.918;2023-01-29T06:24:50;98308.91;;;0.37;80.43
50774;BME280;36745;48.544;8.918;2023-01-29T06:28:10;98303.56;;;0.25;79.73
50774;BME280;36745;48.544;8.918;2023-01-29T06:31:30;98316.84;;;0.30;80.43
50774;BME280;36745;48.544;8.918;2023-01-29T06:34:51;98323.94;;;0.35;80.12
50774;BME280;36745;48.544;8.918;2023-01-29T06:38:11;98330.41;;;0.30;79.86
50774;BME280;36745;48.544;8.918;2023-01-29T06:41:31;98332.69;;;0.28;79.25
50774;BME280;36745;48.544;8.918;2023-01-29T06:44:51;98332.88;;;0.35;79.36
50774;BME280;36745;48.544;8.918;2023-01-29T06:48:12;98340.56;;;0.33;79.49
50774;BME280;36745;48.544;8.918;2023-01-29T06:51:31;98340.38;;;0.26;78.72
50774;BME280;36745;48.544;8.918;2023-01-29T06:54:51;98341.78;;;0.20;78.87
50774;BME280;36745;48.544;8.918;2023-01-29T06:58:11;98340.13;;;0.31;79.27
50774;BME280;36745;48.544;8.918;2023-01-29T07:01:31;98341.84;;;0.24;78.88
50774;BME280;36745;48.544;8.918;2023-01-29T07:04:50;98345.69;;;0.23;79.14
50774;BME280;36745;48.544;8.918;2023-01-29T07:08:10;98342.66;;;0.24;79.33
50774;BME280;36745;48.544;8.918;2023-01-29T07:11:30;98348.16;;;0.28;79.12
50774;BME280;36745;48.544;8.918;2023-01-29T07:14:50;98355.94;;;0.29;79.48
50774;BME280;36745;48.544;8.918;2023-01-29T07:18:10;98358.47;;;0.22;78.73
50774;BME280;36745;48.544;8.918;2023-01-29T07:21:32;98358.13;;;0.24;78.28
50774;BME280;36745;48.544;8.918;2023-01-29T07:24:52;98358.16;;;-0.04;77.53
50774;BME280;36745;48.544;8.918;2023-01-29T07:28:12;98359.13;;;0.04;79.13
50774;BME280;36745;48.544;8.918;2023-01-29T07:31:32;98357.34;;;0.23;78.87
50774;BME280;36745;48.544;8.918;2023-01-29T07:34:52;98356.66;;;0.26;78.20
50774;BME280;36745;48.544;8.918;2023-01-29T07:38:12;98350.53;;;0.29;78.74
50774;BME280;36745;48.544;8.918;2023-01-29T07:41:32;98355.28;;;0.32;78.68
50774;BME280;36745;48.544;8.918;2023-01-29T07:44:51;98353.44;;;0.36;77.64
50774;BME280;36745;48.544;8.918;2023-01-29T07:48:12;98366.81;;;0.29;77.90
50774;BME280;36745;48.544;8.918;2023-01-29T07:51:32;98375.47;;;0.35;78.03
50774;BME280;36745;48.544;8.918;2023-01-29T07:54:51;98382.75;;;0.47;78.10
50774;BME280;36745;48.544;8.918;2023-01-29T07:58:11;98384.50;;;0.55;77.92
50774;BME280;36745;48.544;8.918;2023-01-29T08:01:31;98382.75;;;0.47;77.89
50774;BME280;36745;48.544;8.918;2023-01-29T08:04:51;98380.91;;;0.51;77.69
50774;BME280;36745;48.544;8.918;2023-01-29T08:08:11;98384.09;;;0.53;77.93
50774;BME280;36745;48.544;8.918;2023-01-29T08:11:31;98396.00;;;0.64;77.81
50774;BME280;36745;48.544;8.918;2023-01-29T08:14:51;98393.53;;;0.59;77.18
50774;BME280;36745;48.544;8.918;2023-01-29T08:18:11;98388.47;;;0.57;77.38
50774;BME280;36745;48.544;8.918;2023-01-29T08:21:31;98383.81;;;0.58;77.22
50774;BME280;36745;48.544;8.918;2023-01-29T08:24:54;98384.50;;;0.55;77.01
50774;BME280;36745;48.544;8.918;2023-01-29T08:28:14;98390.84;;;0.59;77.24
50774;BME280;36745;48.544;8.918;2023-01-29T08:31:34;98384.69;;;0.62;77.03
50774;BME280;36745;48.544;8.918;2023-01-29T08:34:53;98389.59;;;0.72;76.68
50774;BME280;36745;48.544;8.918;2023-01-29T08:38:13;98392.06;;;0.77;76.44
50774;BME280;36745;48.544;8.918;2023-01-29T08:41:33;98390.59;;;0.79;76.56
50774;BME280;36745;48.544;8.918;2023-01-29T08:44:53;98397.94;;;0.79;76.30
50774;BME280;36745;48.544;8.918;2023-01-29T08:48:13;98410.44;;;0.68;75.98
50774;BME280;36745;48.544;8.918;2023-01-29T08:51:32;98406.06;;;0.79;76.07
50774;BME280;36745;48.544;8.918;2023-01-29T08:54:52;98415.63;;;0.89;76.39
50774;BME280;36745;48.544;8.918;2023-01-29T08:58:12;98415.63;;;0.89;75.87
50774;BME280;36745;48.544;8.918;2023-01-29T09:01:31;98421.03;;;0.89;75.80
50774;BME280;36745;48.544;8.918;2023-01-29T09:04:51;98420.84;;;0.81;75.28
50774;BME280;36745;48.544;8.918;2023-01-29T09:08:11;98418.34;;;1.04;74.83
50774;BME280;36745;48.544;8.918;2023-01-29T09:11:31;98417.19;;;0.90;74.83
50774;BME280;36745;48.544;8.918;2023-01-29T09:14:50;98413.25;;;0.87;74.93
50774;BME280;36745;48.544;8.918;2023-01-29T09:18:10;98421.03;;;0.89;75.30
50774;BME280;36745;48.544;8.918;2023-01-29T09:21:30;98420.53;;;0.99;75.14
50774;BME280;36745;48.544;8.918;2023-01-29T09:24:50;98427.19;;;1.01;75.17
50774;BME280;36745;48.544;8.918;2023-01-29T09:28:10;98431.91;;;1.20;75.22
50774;BME280;36745;48.544;8.918;2023-01-29T09:31:29;98434.09;;;1.14;74.03
50774;BME280;36745;48.544;8.918;2023-01-29T09:34:49;98423.34;;;1.18;74.47
50774;BME280;36745;48.544;8.918;2023-01-29T09:38:09;98429.16;;;1.36;74.62
50774;BME280;36745;48.544;8.918;2023-01-29T09:41:36;98420.59;;;1.34;74.23
50774;BME280;36745;48.544;8.918;2023-01-29T09:48:26;98423.06;;;1.23;73.62
50774;BME280;36745;48.544;8.918;2023-01-29T09:51:50;98430.16;;;1.27;73.68
50774;BME280;36745;48.544;8.918;2023-01-29T09:55:28;98422.47;;;1.30;73.65
50774;BME280;36745;48.544;8.918;2023-01-29T09:58:49;98420.91;;;1.48;74.38
50774;BME280;36745;48.544;8.918;2023-01-29T10:02:16;98418.56;;;1.46;73.15
50774;BME280;36745;48.544;8.918;2023-01-29T10:05:49;98416.78;;;1.54;73.33
50774;BME280;36745;48.544;8.918;2023-01-29T10:13:06;98404.44;;;1.41;72.71
50774;BME280;36745;48.544;8.918;2023-01-29T10:27:49;98361.88;;;1.64;72.72
50774;BME280;36745;48.544;8.918;2023-01-29T10:31:14;98355.91;;;1.93;72.92
50774;BME280;36745;48.544;8.918;2023-01-29T10:34:41;98360.75;;;2.23;71.26
50774;BME280;36745;48.544;8.918;2023-01-29T10:38:18;98361.13;;;2.02;71.91
50774;BME280;36745;48.544;8.918;2023-01-29T10:42:05;98359.63;;;2.04;71.06
50774;BME280;36745;48.544;8.918;2023-01-29T10:53:21;98357.31;;;2.26;70.65
50774;BME280;36745;48.544;8.918;2023-01-29T11:00:21;98356.72;;;2.17;70.16
50774;BME280;36745;48.544;8.918;2023-01-29T11:03:42;98361.31;;;2.32;70.00
50774;BME280;36745;48.544;8.918;2023-01-29T11:07:03;98358.91;;;2.27;69.15
50774;BME280;36745;48.544;8.918;2023-01-29T11:10:23;98342.97;;;2.48;69.93
50774;BME280;36745;48.544;8.918;2023-01-29T11:13:58;98342.09;;;2.44;68.70
50774;BME280;36745;48.544;8.918;2023-01-29T11:17:21;98338.03;;;2.34;67.88
50774;BME280;36745;48.544;8.918;2023-01-29T11:20:43;98339.06;;;2.26;69.08
50774;BME280;36745;48.544;8.918;2023-01-29T11:24:06;98329.94;;;2.61;69.65
50774;BME280;36745;48.544;8.918;2023-01-29T11:27:25;98343.78;;;2.52;67.82
50774;BME280;36745;48.544;8.918;2023-01-29T11:30:49;98360.31;;;2.21;67.39
50774;BME280;36745;48.544;8.918;2023-01-29T11:34:18;98356.00;;;2.39;68.42
50774;BME280;36745;48.544;8.918;2023-01-29T11:37:41;98349.66;;;2.54;68.36
50774;BME280;36745;48.544;8.918;2023-01-29T11:41:09;98353.00;;;2.67;68.64
50774;BME280;36745;48.544;8.918;2023-01-29T11:47:58;98347.31;;;2.75;67.78
50774;BME280;36745;48.544;8.918;2023-01-29T11:51:26;98326.25;;;2.72;68.17
50774;BME280;36745;48.544;8.918;2023-01-29T11:55:00;98325.97;;;3.04;68.16
50774;BME280;36745;48.544;8.918;2023-01-29T11:58:28;98316.31;;;2.83;67.23
50774;BME280;36745;48.544;8.918;2023-01-29T12:01:49;98309.72;;;2.84;66.64
50774;BME280;36745;48.544;8.918;2023-01-29T12:05:15;98321.72;;;2.80;66.87
50774;BME280;36745;48.544;8.918;2023-01-29T12:08:37;98313.38;;;2.69;66.69
50774;BME280;36745;48.544;8.918;2023-01-29T12:12:16;98308.50;;;2.82;67.06
50774;BME280;36745;48.544;8.918;2023-01-29T12:15:40;98307.13;;;2.91;67.26
50774;BME280;36745;48.544;8.918;2023-01-29T12:19:14;98308.59;;;2.85;66.44
50774;BME280;36745;48.544;8.918;2023-01-29T12:22:46;98307.00;;;2.84;66.43
50774;BME280;36745;48.544;8.918;2023-01-29T12:26:14;98297.47;;;2.97;66.74
50774;BME280;36745;48.544;8.918;2023-01-29T12:40:16;98258.25;;;3.62;66.46
50774;BME280;36745;48.544;8.918;2023-01-29T12:43:47;98239.19;;;3.99;66.08
50774;BME280;36745;48.544;8.918;2023-01-29T12:47:31;98230.72;;;4.11;65.45
50774;BME280;36745;48.544;8.918;2023-01-29T12:51:06;98222.94;;;4.13;64.91
50774;BME280;36745;48.544;8.918;2023-01-29T12:54:38;98207.13;;;3.89;64.21
50774;BME280;36745;48.544;8.918;2023-01-29T12:58:01;98194.53;;;3.77;64.72
50774;BME280;36745;48.544;8.918;2023-01-29T13:01:49;98177.78;;;4.19;64.72
50774;BME280;36745;48.544;8.918;2023-01-29T13:05:18;98179.81;;;4.29;63.60
50774;BME280;36745;48.544;8.918;2023-01-29T13:08:47;98165.44;;;4.36;62.75
50774;BME280;36745;48.544;8.918;2023-01-29T13:12:15;98164.44;;;4.10;63.40
50774;BME280;36745;48.544;8.918;2023-01-29T13:15:41;98157.91;;;4.18;63.21
50774;BME280;36745;48.544;8.918;2023-01-29T13:19:05;98167.19;;;4.61;63.93
50774;BME280;36745;48.544;8.918;2023-01-29T13:22:34;98160.81;;;5.01;63.50
50774;BME280;36745;48.544;8.918;2023-01-29T13:25:56;98156.59;;;5.25;63.19
50774;BME280;36745;48.544;8.918;2023-01-29T13:29:27;98172.03;;;4.86;62.12
50774;BME280;36745;48.544;8.918;2023-01-29T13:32:50;98164.19;;;4.81;61.07
50774;BME280;36745;48.544;8.918;2023-01-29T13:36:17;98166.19;;;4.29;60.67
50774;BME280;36745;48.544;8.918;2023-01-29T13:39:39;98162.13;;;4.09;61.27
50774;BME280;36745;48.544;8.918;2023-01-29T13:43:04;98163.22;;;3.60;61.60
50774;BME280;36745;48.544;8.918;2023-01-29T13:46:26;98155.50;;;3.69;61.56
50774;BME280;36745;48.544;8.918;2023-01-29T13:53:26;98150.38;;;3.61;61.62
50774;BME280;36745;48.544;8.918;2023-01-29T14:03:43;98167.44;;;3.21;61.79
50774;BME280;36745;48.544;8.918;2023-01-29T14:15:03;98180.50;;;3.08;62.83
50774;BME280;36745;48.544;8.918;2023-01-29T14:18:24;98182.94;;;3.17;63.43
50774;BME280;36745;48.544;8.918;2023-01-29T14:21:48;98181.03;;;3.21;62.97
50774;BME280;36745;48.544;8.918;2023-01-29T14:25:14;98172.78;;;3.14;62.84
50774;BME280;36745;48.544;8.918;2023-01-29T14:28:35;98179.34;;;3.09;63.38
50774;BME280;36745;48.544;8.918;2023-01-29T14:35:27;98180.84;;;2.77;63.39
50774;BME280;36745;48.544;8.918;2023-01-29T14:38:49;98184.78;;;2.79;63.40
50774;BME280;36745;48.544;8.918;2023-01-29T14:45:40;98190.09;;;2.69;63.31
50774;BME280;36745;48.544;8.918;2023-01-29T14:49:01;98190.72;;;2.59;63.51
50774;BME280;36745;48.544;8.918;2023-01-29T14:52:28;98188.31;;;2.53;63.82
50774;BME280;36745;48.544;8.918;2023-01-29T14:55:55;98187.41;;;2.46;64.52
50774;BME280;36745;48.544;8.918;2023-01-29T14:59:33;98177.25;;;2.43;64.42
50774;BME280;36745;48.544;8.918;2023-01-29T15:02:56;98187.34;;;2.42;64.31
50774;BME280;36745;48.544;8.918;2023-01-29T15:13:33;98180.47;;;2.26;65.24
50774;BME280;36745;48.544;8.918;2023-01-29T15:17:05;98173.16;;;2.30;65.49
50774;BME280;36745;48.544;8.918;2023-01-29T15:20:39;98172.72;;;2.28;65.58
50774;BME280;36745;48.544;8.918;2023-01-29T15:24:04;98166.88;;;2.26;65.56
50774;BME280;36745;48.544;8.918;2023-01-29T15:27:24;98169.78;;;2.14;65.20
50774;BME280;36745;48.544;8.918;2023-01-29T15:30:44;98170.94;;;2.13;65.64
50774;BME280;36745;48.544;8.918;2023-01-29T15:34:05;98171.25;;;2.07;65.92
50774;BME280;36745;48.544;8.918;2023-01-29T15:37:33;98178.13;;;2.01;66.25
50774;BME280;36745;48.544;8.918;2023-01-29T15:40:59;98180.31;;;1.92;65.95
50774;BME280;36745;48.544;8.918;2023-01-29T15:44:21;98169.31;;;1.85;65.94
50774;BME280;36745;48.544;8.918;2023-01-29T15:47:41;98156.75;;;1.77;66.33
50774;BME280;36745;48.544;8.918;2023-01-29T15:51:01;98158.97;;;1.72;66.45
50774;BME280;36745;48.544;8.918;2023-01-29T15:54:24;98151.03;;;1.63;67.22
50774;BME280;36745;48.544;8.918;2023-01-29T15:57:48;98158.66;;;1.54;67.21
50774;BME280;36745;48.544;8.918;2023-01-29T16:01:08;98156.81;;;1.39;67.53
50774;BME280;36745;48.544;8.918;2023-01-29T16:04:29;98163.63;;;1.29;67.82
50774;BME280;36745;48.544;8.918;2023-01-29T16:07:50;98165.41;;;1.21;67.69
50774;BME280;36745;48.544;8.918;2023-01-29T16:11:11;98169.41;;;1.08;68.38
50774;BME280;36745;48.544;8.918;2023-01-29T16:14:32;98168.66;;;0.92;68.69
50774;BME280;36745;48.544;8.918;2023-01-29T16:17:52;98168.97;;;0.87;68.94
50774;BME280;36745;48.544;8.918;2023-01-29T16:24:42;98175.09;;;0.65;69.11
50774;BME280;36745;48.544;8.918;2023-01-29T16:28:03;98166.78;;;0.58;70.00
50774;BME280;36745;48.544;8.918;2023-01-29T16:31:27;98157.00;;;0.53;69.96
50774;BME280;36745;48.544;8.918;2023-01-29T16:34:55;98165.75;;;0.47;69.82
50774;BME280;36745;48.544;8.918;2023-01-29T16:38:29;98161.56;;;0.33;70.53
50774;BME280;36745;48.544;8.918;2023-01-29T16:42:19;98162.03;;;0.20;70.98
50774;BME280;36745;48.544;8.918;2023-01-29T16:45:39;98161.25;;;0.19;70.93
50774;BME280;36745;48.544;8.918;2023-01-29T16:48:59;98163.88;;;0.16;71.00
50774;BME280;36745;48.544;8.918;2023-01-29T16:55:44;98169.53;;;-0.05;71.63
50774;BME280;36745;48.544;8.918;2023-01-29T16:59:05;98169.66;;;-0.17;71.74
50774;BME280;36745;48.544;8.918;2023-01-29T17:02:27;98172.78;;;-0.15;72.46
50774;BME280;36745;48.544;8.918;2023-01-29T17:05:48;98177.94;;;-0.10;72.03
50774;BME280;36745;48.544;8.918;2023-01-29T17:09:32;98171.03;;;-0.23;72.61
50774;BME280;36745;48.544;8.918;2023-01-29T17:13:04;98178.72;;;-0.25;72.78
50774;BME280;36745;48.544;8.918;2023-01-29T17:16:26;98182.81;;;-0.31;73.41
50774;BME280;36745;48.544;8.918;2023-01-29T17:19:46;98183.53;;;-0.34;73.85
50774;BME280;36745;48.544;8.918;2023-01-29T17:23:06;98180.28;;;-0.40;73.79
50774;BME280;36745;48.544;8.918;2023-01-29T17:26:26;98175.72;;;-0.52;73.93
50774;BME280;36745;48.544;8.918;2023-01-29T17:29:46;98187.00;;;-0.50;74.24
50774;BME280;36745;48.544;8.918;2023-01-29T17:33:11;98180.69;;;-0.54;74.73
50774;BME280;36745;48.544;8.918;2023-01-29T17:36:31;98183.66;;;-0.59;74.68
50774;BME280;36745;48.544;8.918;2023-01-29T17:39:51;98183.03;;;-0.68;74.80
50774;BME280;36745;48.544;8.918;2023-01-29T17:43:11;98178.97;;;-0.74;75.10
50774;BME280;36745;48.544;8.918;2023-01-29T17:46:31;98183.50;;;-0.78;75.63
50774;BME280;36745;48.544;8.918;2023-01-29T17:49:50;98179.81;;;-0.86;76.01
50774;BME280;36745;48.544;8.918;2023-01-29T17:53:10;98189.63;;;-0.81;76.46
50774;BME280;36745;48.544;8.918;2023-01-29T17:56:30;98181.94;;;-0.79;76.54
50774;BME280;36745;48.544;8.918;2023-01-29T17:59:49;98186.38;;;-0.87;76.63
50774;BME280;36745;48.544;8.918;2023-01-29T18:03:09;98174.06;;;-0.84;76.60
50774;BME280;36745;48.544;8.918;2023-01-29T18:06:29;98174.66;;;-0.91;77.29
50774;BME280;36745;48.544;8.918;2023-01-29T18:09:49;98176.81;;;-0.96;77.15
50774;BME280;36745;48.544;8.918;2023-01-29T18:13:09;98182.47;;;-1.01;77.38
50774;BME280;36745;48.544;8.918;2023-01-29T18:16:28;98183.03;;;-1.08;78.06
50774;BME280;36745;48.544;8.918;2023-01-29T18:19:54;98187.13;;;-1.14;78.08
50774;BME280;36745;48.544;8.918;2023-01-29T18:23:16;98186.94;;;-1.21;78.29
50774;BME280;36745;48.544;8.918;2023-01-29T18:26:36;98190.28;;;-1.12;78.24
50774;BME280;36745;48.544;8.918;2023-01-29T18:29:56;98190.19;;;-1.15;78.59
50774;BME280;36745;48.544;8.918;2023-01-29T18:33:16;98187.72;;;-1.20;78.38
50774;BME280;36745;48.544;8.918;2023-01-29T18:36:35;98190.66;;;-1.25;78.70
50774;BME280;36745;48.544;8.918;2023-01-29T18:39:55;98185.69;;;-1.23;79.08
50774;BME280;36745;48.544;8.918;2023-01-29T18:43:15;98180.97;;;-1.27;79.35
50774;BME280;36745;48.544;8.918;2023-01-29T18:46:35;98176.25;;;-1.30;80.27
50774;BME280;36745;48.544;8.918;2023-01-29T18:49:55;98164.97;;;-1.32;80.75
50774;BME280;36745;48.544;8.918;2023-01-29T18:53:15;98169.50;;;-1.36;80.68
50774;BME280;36745;48.544;8.918;2023-01-29T18:56:34;98170.03;;;-1.30;80.43
50774;BME280;36745;48.544;8.918;2023-01-29T18:59:54;98181.53;;;-1.33;80.80
50774;BME280;36745;48.544;8.918;2023-01-29T19:03:14;98178.94;;;-1.30;81.13
50774;BME280;36745;48.544;8.918;2023-01-29T19:06:34;98172.06;;;-1.27;81.37
50774;BME280;36745;48.544;8.918;2023-01-29T19:09:54;98167.91;;;-1.24;81.01
50774;BME280;36745;48.544;8.918;2023-01-29T19:13:14;98174.44;;;-1.38;81.05
50774;BME280;36745;48.544;8.918;2023-01-29T19:16:33;98167.69;;;-1.44;81.94
50774;BME280;36745;48.544;8.918;2023-01-29T19:19:53;98167.91;;;-1.37;81.64
50774;BME280;36745;48.544;8.918;2023-01-29T19:23:14;98166.13;;;-1.45;81.73
50774;BME280;36745;48.544;8.918;2023-01-29T19:26:35;98172.53;;;-1.49;81.96
50774;BME280;36745;48.544;8.918;2023-01-29T19:29:58;98175.56;;;-1.51;81.93
50774;BME280;36745;48.544;8.918;2023-01-29T19:33:17;98177.97;;;-1.61;82.34
50774;BME280;36745;48.544;8.918;2023-01-29T19:36:37;98182.38;;;-1.69;81.79
50774;BME280;36745;48.544;8.918;2023-01-29T19:39:57;98182.16;;;-1.76;82.69
50774;BME280;36745;48.544;8.918;2023-01-29T19:43:17;98188.00;;;-1.86;82.74
50774;BME280;36745;48.544;8.918;2023-01-29T19:46:37;98191.72;;;-1.91;83.04
50774;BME280;36745;48.544;8.918;2023-01-29T19:49:57;98190.94;;;-1.91;83.12
50774;BME280;36745;48.544;8.918;2023-01-29T19:53:17;98193.16;;;-1.93;82.96
50774;BME280;36745;48.544;8.918;2023-01-29T19:56:37;98200.38;;;-1.97;83.42
50774;BME280;36745;48.544;8.918;2023-01-29T19:59:58;98200.81;;;-2.07;83.97
50774;BME280;36745;48.544;8.918;2023-01-29T20:03:18;98201.28;;;-2.05;84.46
50774;BME280;36745;48.544;8.918;2023-01-29T20:06:38;98201.72;;;-2.03;83.73
50774;BME280;36745;48.544;8.918;2023-01-29T20:09:57;98195.41;;;-2.07;83.99
50774;BME280;36745;48.544;8.918;2023-01-29T20:13:17;98194.53;;;-2.12;84.32